Swiss Alp, Texas
Current Conditions -  °F | °C
As of 10:55 AM on Wednesday 22 Oct 2014 (Local Time) from K3T5 Reporting Station
Haze Haze  
Wind Chill: 76°   Ceiling: Unl
Heat Index: 78°   Visibility: 4mi
Dew Point: 64°   Wind: 6mph
Humidity: 66%   Direction: 100°E
Pressure: 30.11"   Gusts: NA
Location:  29.7125°N, 96.9231°W
Report Text: K3T5 221555Z AUTO 10005KT 4SM HZ CLR 25/18 A3011 RMK AO2 T02470180
Loading
Personal Weather Stations






























Interactive Weather Map
Tropical Storm Tracking
New forecast layout! Learn more

10-Day Weather Forecast

Advertisements
Track Severe Weather on mobile